Flight Track Log - Related Links

Times and Time Zones

All times are in EST time to prevent confusion due to time zone crossing. See the FLG3392 flight status page for this flight to view local times or setup timezone preferences in your user account.

Time Position Orientation Groundspeed Altitude Reporting Facility
EST Latitude Longitude Course Direction KTS MPH feet Rate Location/Type
Mon 05:42:55 PM 42.1686 -85.4800 112° Southeast 223 257 3,100  Level Cleveland Center
Mon 05:43:57 PM 42.1389 -85.3831 112° Southeast 287 330 5,700 2,806 Climbing Cleveland Center
Mon 05:44:59 PM 42.1269 -85.2700 98° East 302 348 8,900 2,484 Climbing Cleveland Center
Mon 05:46:05 PM 42.1106 -85.1428 100° East 315 362 11,000 984 Climbing Chicago Center
Mon 05:47:07 PM 42.0883 -84.9631 99° East 400 460 11,000  Level Chicago Center
Mon 05:48:09 PM 42.0697 -84.8139 99° East 407 468 11,000  Level Chicago Center
Mon 05:49:11 PM 42.0314 -84.6733 110° East 403 464 11,000  Level Chicago Center
Mon 05:50:13 PM 41.9864 -84.5322 113° Southeast 409 471 11,000  Level Chicago Center
Mon 05:51:14 PM 41.9436 -84.3997 113° Southeast 406 467 11,000  Level Chicago Center
Mon 05:51:44 PM 41.9161 -84.3175 114° Southeast 381 438 11,000  Level Cleveland Center
Mon 05:52:14 PM 41.8964 -84.2517 112° Southeast 383 441 11,000  Level Cleveland Center
Mon 05:52:51 PM 41.8678 -84.1694 115° Southeast 374 430 11,000  Level Cleveland Center
Mon 05:53:16 PM 41.8550 -84.1250 111° Southeast 375 432 11,000  Level Cleveland Center
Mon 05:53:52 PM 41.8417 -84.0336 101° East 398 458 11,000  Level Cleveland Center
Mon 05:54:18 PM 41.8561 -83.9867 68° East 397 457 11,000  Level Cleveland Center
Mon 05:54:53 PM 41.9025 -83.9081 52° Northeast 418 481 11,000  Level Cleveland Center
Mon 05:55:20 PM 41.9267 -83.8661 52° Northeast 411 473 11,000  Level Cleveland Center
Mon 05:55:54 PM 41.9822 -83.7822 48° Northeast 416 479 11,000  Level Cleveland Center
Mon 05:56:22 PM 42.0053 -83.7547 42° Northeast 411 473 11,000  Level Cleveland Center
Mon 05:56:55 PM 42.0700 -83.6800 41° Northeast 416 479 11,000  Level Cleveland Center
Mon 05:57:24 PM 42.1081 -83.6344 42° Northeast 408 470 11,000  Level Cleveland Center
Mon 05:57:56 PM 42.1461 -83.5953 37° Northeast 312 359 11,000  Level Cleveland Center
Mon 05:58:26 PM 42.1786 -83.5697 30° Northeast 317 365 11,000  Level Cleveland Center
Mon 05:58:51 PM 42.2108 -83.5453 29° Northeast 286 329 11,000 -290 Level Cleveland Center
Mon 05:59:28 PM 42.2464 -83.5183 29° Northeast 292 336 10,700 -1,082 Descending Cleveland Center
Mon 05:59:52 PM 42.2803 -83.4906 31° Northeast 291 335 9,900 -1,452 Descending Cleveland Center
Mon 06:00:30 PM 42.3172 -83.4642 28° Northeast 290 334 9,200 -1,343 Descending Cleveland Center
Mon 06:00:59 PM 42.3600 -83.4342 27° Northeast 278 320 8,400 -1,429 Descending Cleveland Center
Mon 06:01:33 PM 42.3986 -83.4092 26° Northeast 280 322 7,700 -1,286 Descending Cleveland Center
Mon 06:01:55 PM 42.4197 -83.3944 27° Northeast 240 276 7,200 -1,161 Descending Cleveland Center
Mon 06:02:35 PM 42.4542 -83.3678 30° Northeast 254 292 6,500 -1,791 Descending Cleveland Center
Mon 06:03:02 PM 42.4708 -83.3311 58° Northeast 248 285 5,200 -2,129 Descending Cleveland Center
Mon 06:03:37 PM 42.4633 -83.2956 106° East 226 260 4,300 -1,180 Descending Cleveland Center
Mon 06:04:03 PM 42.4622 -83.2533 92° East 202 232 4,000 -290 Descending Cleveland Center
Mon 06:04:39 PM 42.4461 -83.2342 139° Southeast 207 238 4,000  Level Cleveland Center
Mon 06:05:04 PM 42.4172 -83.2386 186° South 175 201 4,000  Level Cleveland Center
Mon 06:05:41 PM 42.3981 -83.2394 182° South 179 206 4,000  Level Cleveland Center
Mon 06:06:00 PM 42.3764 -83.2528 204° Southwest 160 184 4,000 -387 Level Cleveland Center
Mon 06:06:43 PM 42.3517 -83.2736 212° Southwest 161 185 3,600 -689 Descending Cleveland Center
Mon 06:07:01 PM 42.3383 -83.2842 210° Southwest 147 169 3,300 -871 Descending Cleveland Center
Mon 06:07:45 PM 42.3153 -83.3014 209° Southwest 156 180 2,700 -787 Descending Cleveland Center
Mon 06:08:02 PM 42.3028 -83.3103 208° Southwest 143 165 2,500 -871 Descending Cleveland Center
Mon 06:08:47 PM 42.2789 -83.3142 187° South 146 168 1,800 -985 Descending Cleveland Center
Mon 06:09:09 PM 42.2658 -83.3247 211° Southwest 116 133 1,400 -677 Descending Cleveland Center
Mon 06:09:49 PM 42.2503 -83.3353 207° Southwest 126 145 1,100 -581 Descending Cleveland Center
Mon 06:10:11 PM 42.2350 -83.3458 207° Southwest 123 142 800 -97 Descending Cleveland Center
Mon 06:10:51 PM 42.2219 -83.3569 212° Southwest 124 143 1,000 300 Climbing Cleveland Center

Login

Don't have an account? Register now (free) for customized features, flight alerts, and more!